createdAt,value
2017-07-12T00:07:15.000Z,56.9
2017-07-12T00:17:15.000Z,56.6
2017-07-12T00:27:15.000Z,56.5
2017-07-12T00:37:15.000Z,56.8
2017-07-12T00:47:15.000Z,57.2
2017-07-12T00:57:15.000Z,57.3
2017-07-12T01:07:15.000Z,57.9
2017-07-12T01:17:15.000Z,57.9
2017-07-12T01:27:15.000Z,58.3
2017-07-12T01:37:15.000Z,59
2017-07-12T01:47:15.000Z,59.1
2017-07-12T01:57:15.000Z,59
2017-07-12T02:07:15.000Z,59
2017-07-12T02:17:15.000Z,59.1
2017-07-12T02:27:15.000Z,59.2
2017-07-12T02:37:15.000Z,59.5
2017-07-12T02:47:15.000Z,59.7
2017-07-12T02:57:15.000Z,60.4
2017-07-12T03:07:15.000Z,59.7
2017-07-12T03:17:15.000Z,59.7
2017-07-12T03:27:15.000Z,60
2017-07-12T03:37:15.000Z,59.6
2017-07-12T03:47:15.000Z,59.5
2017-07-12T03:57:15.000Z,58.6
2017-07-12T04:07:15.000Z,58.8
2017-07-12T04:17:15.000Z,59.1
2017-07-12T04:27:16.000Z,59.2
2017-07-12T04:37:16.000Z,59.4
2017-07-12T04:47:16.000Z,59.3
2017-07-12T04:57:16.000Z,59.7
2017-07-12T05:07:16.000Z,59.1
2017-07-12T05:17:16.000Z,59
2017-07-12T05:27:16.000Z,58.7
2017-07-12T05:37:16.000Z,59.1
2017-07-12T05:47:16.000Z,59.5
2017-07-12T05:57:16.000Z,59.8
2017-07-12T06:07:16.000Z,60.4
2017-07-12T06:17:16.000Z,60.4
2017-07-12T06:27:16.000Z,60.1
2017-07-12T06:37:16.000Z,60
2017-07-12T06:47:16.000Z,59.8
2017-07-12T06:57:16.000Z,59.6
2017-07-12T07:07:16.000Z,59.5
2017-07-12T07:17:16.000Z,59.5
2017-07-12T07:27:16.000Z,60
2017-07-12T07:37:16.000Z,60.8
2017-07-12T07:47:16.000Z,59.4
2017-07-12T07:57:16.000Z,58.4
2017-07-12T08:07:16.000Z,58.2
2017-07-12T08:17:16.000Z,58.3
2017-07-12T08:27:16.000Z,58.1
2017-07-12T08:37:16.000Z,58.3
2017-07-12T08:47:16.000Z,58.1
2017-07-12T08:57:16.000Z,58.1
2017-07-12T09:07:16.000Z,58
2017-07-12T09:17:16.000Z,57.8
2017-07-12T09:37:17.000Z,57.7
2017-07-12T09:47:16.000Z,57.9
2017-07-12T09:57:16.000Z,58
2017-07-12T10:07:16.000Z,58.1
2017-07-12T10:17:16.000Z,57.9
2017-07-12T10:27:16.000Z,58.2
2017-07-12T10:37:16.000Z,58.3
2017-07-12T10:47:16.000Z,58.3
2017-07-12T10:57:16.000Z,57.7
2017-07-12T11:07:16.000Z,57.6
2017-07-12T11:17:17.000Z,57.5
2017-07-12T11:27:17.000Z,57.5
2017-07-12T11:37:17.000Z,57.6
2017-07-12T11:47:17.000Z,57.3
2017-07-12T11:57:17.000Z,57.3
2017-07-12T12:07:17.000Z,57.6
2017-07-12T12:17:17.000Z,58
2017-07-12T12:27:17.000Z,58.5
2017-07-12T12:37:17.000Z,58.4
2017-07-12T12:47:17.000Z,58.4
2017-07-12T12:57:17.000Z,58.1
2017-07-12T13:07:17.000Z,58.1
2017-07-12T13:17:17.000Z,58
2017-07-12T13:27:17.000Z,58.2
2017-07-12T13:37:17.000Z,58
2017-07-12T13:47:17.000Z,57.9
2017-07-12T13:57:17.000Z,57.8
2017-07-12T14:17:17.000Z,57.4
2017-07-12T14:27:17.000Z,57.5
2017-07-12T14:37:17.000Z,57.7
2017-07-12T14:47:17.000Z,57.4
2017-07-12T14:57:17.000Z,56.5
2017-07-12T15:07:17.000Z,56.4
2017-07-12T15:17:17.000Z,55.8
2017-07-12T15:27:17.000Z,54.5
2017-07-12T15:37:17.000Z,54.6
2017-07-12T15:47:17.000Z,54.2
2017-07-12T15:57:18.000Z,54.3
2017-07-12T16:07:17.000Z,54.4
2017-07-12T16:17:17.000Z,53.6
2017-07-12T16:27:19.000Z,53.6
2017-07-12T16:37:17.000Z,53.1
2017-07-12T16:47:17.000Z,50.2
2017-07-12T16:57:17.000Z,52.7
2017-07-12T17:07:19.000Z,51.5
2017-07-12T17:27:17.000Z,50.2
2017-07-12T17:37:17.000Z,47.5
2017-07-12T17:47:17.000Z,47.3
2017-07-12T18:07:18.000Z,46.1
2017-07-12T18:17:18.000Z,42.3
2017-07-12T18:27:18.000Z,42
2017-07-12T18:37:18.000Z,43.2
2017-07-12T18:47:18.000Z,43.2
2017-07-12T18:57:18.000Z,42.3
2017-07-12T19:07:18.000Z,42.3
2017-07-12T19:17:18.000Z,41.5
2017-07-12T19:27:18.000Z,42.5
2017-07-12T19:37:18.000Z,42.8
2017-07-12T19:47:18.000Z,42.5
2017-07-12T19:57:18.000Z,43.2
2017-07-12T20:07:18.000Z,44.7
2017-07-12T20:17:18.000Z,44.2
2017-07-12T20:27:18.000Z,44.1
2017-07-12T20:57:18.000Z,44.3
2017-07-12T21:07:18.000Z,43.7
2017-07-12T21:17:18.000Z,44.6
2017-07-12T21:27:19.000Z,45.6
2017-07-12T21:37:18.000Z,43.4
2017-07-12T21:47:18.000Z,43.4
2017-07-12T21:57:18.000Z,43.5
2017-07-12T22:07:18.000Z,43.7
2017-07-12T22:17:18.000Z,43.9
2017-07-12T22:27:18.000Z,44.1
2017-07-12T22:37:19.000Z,43.9
2017-07-12T22:47:18.000Z,45
2017-07-12T22:57:18.000Z,44.9
2017-07-12T23:17:18.000Z,44.9
2017-07-12T23:27:18.000Z,45.5
2017-07-12T23:37:18.000Z,46
2017-07-12T23:47:18.000Z,45.8
2017-07-12T23:57:18.000Z,45.6
